MDT,Max TemperatureF,Mean TemperatureF,Min TemperatureF,Max Dew PointF,MeanDew PointF,Min DewpointF,Max Humidity, Mean Humidity, Min Humidity, Max Sea Level PressureIn, Mean Sea Level PressureIn, Min Sea Level PressureIn, Max VisibilityMiles, Mean VisibilityMiles, Min VisibilityMiles, Max Wind SpeedMPH, Mean Wind SpeedMPH, Max Gust SpeedMPH,PrecipitationIn, CloudCover, Events, WindDirDegrees
2013-7-1,79,67,54,52,47,41,84,53,32,30.19,30.15,30.12,10,10,9,13,7,,0.01,4,Rain,129
2013-7-2,83,68,52,43,41,38,62,40,22,30.19,30.10,30.03,10,10,7,15,8,20,T,3,,143
2013-7-3,87,72,57,44,42,38,56,34,20,30.02,29.90,29.80,10,10,10,20,14,26,0.00,1,,174
2013-7-4,94,76,58,51,45,39,60,36,16,29.95,29.80,29.73,10,10,8,18,12,25,0.01,1,Rain-Thunderstorm,164
2013-7-5,99,81,63,59,50,41,64,41,14,29.81,29.68,29.58,10,10,7,31,12,43,0.02,1,Rain,180
2013-7-6,98,79,60,58,52,47,75,41,19,29.78,29.71,29.65,10,10,10,21,7,30,0.00,1,,299
2013-7-7,99,82,64,64,55,49,83,48,19,30.12,29.85,29.75,10,10,8,22,8,32,0.15,3,Rain-Thunderstorm,205
2013-7-8,98,80,62,64,57,43,96,53,17,29.90,29.86,29.80,10,10,4,28,7,38,T,0,,223
2013-7-9,101,82,63,59,55,49,73,43,18,29.98,29.90,29.86,10,10,10,17,10,23,0.00,0,,14
2013-7-10,94,79,64,64,58,55,81,55,28,30.14,30.00,29.91,10,10,2,26,14,36,0.01,1,Rain-Thunderstorm,120
2013-7-11,92,75,58,62,59,54,83,56,35,30.00,29.90,29.79,10,10,9,24,12,31,0.00,0,,174
2013-7-12,102,85,68,60,56,49,73,44,19,30.01,29.77,29.70,10,10,10,24,16,32,0.00,0,,178
2013-7-13,99,80,60,64,60,55,90,55,27,30.08,29.86,29.78,10,10,10,17,7,25,T,1,Rain-Thunderstorm,307
2013-7-14,86,75,64,66,63,58,94,76,44,30.22,29.99,29.86,10,10,4,17,11,21,0.36,4,Rain-Thunderstorm,16
2013-7-15,81,69,57,61,55,40,96,70,25,30.27,30.13,30.04,10,9,2,18,9,26,0.00,3,,160
2013-7-16,80,69,58,61,58,54,94,77,43,30.34,30.16,30.06,10,8,1,22,12,31,0.00,5,,158
2013-7-17,86,74,62,61,58,54,90,66,38,30.37,30.20,30.09,10,10,10,29,18,37,0.00,4,,175
2013-7-18,92,77,62,61,58,55,93,56,29,30.07,29.95,29.85,10,10,10,28,18,36,0.00,0,,175
2013-7-19,93,78,62,63,59,54,94,67,28,30.10,29.94,29.87,10,10,10,32,12,41,0.06,4,Rain-Thunderstorm,12
2013-7-20,87,73,58,64,60,56,93,69,38,30.06,29.90,29.80,10,10,10,15,7,22,0.04,3,Rain-Thunderstorm,173
2013-7-21,89,75,61,64,61,58,100,76,36,30.03,29.88,29.74,10,8,1,17,10,24,0.00,4,,131
2013-7-22,98,81,64,67,62,43,100,71,16,29.96,29.81,29.71,10,6,1,17,10,22,0.00,2,,134
2013-7-23,88,72,55,63,59,52,94,65,35,30.01,29.88,29.73,10,10,10,17,11,25,0.00,1,,73
2013-7-24,87,74,61,64,59,54,94,67,34,30.21,30.04,29.96,10,9,6,24,11,36,0.07,4,Rain,167
2013-7-25,84,71,58,63,58,55,100,79,47,30.15,30.02,29.93,10,8,0,24,8,29,T,3,Fog,127
2013-7-26,84,70,56,61,53,49,93,57,31,30.17,30.09,30.00,10,10,7,20,6,18,0.00,0,,98
2013-7-27,81,69,57,59,54,50,100,67,46,30.14,29.99,29.91,10,10,5,25,14,37,0.12,3,Rain-Thunderstorm,98
2013-7-28,63,60,56,61,57,55,100,95,86,30.13,29.99,29.91,10,4,0,16,8,22,0.05,8,Fog-Rain,109
2013-7-29,82,71,60,64,62,58,100,88,54,30.16,29.97,29.87,10,5,0,15,7,,T,6,Fog-Rain,127
2013-7-30,91,76,61,64,60,50,100,77,26,30.20,30.10,29.99,10,6,0,15,4,,0.00,3,Fog,215
2013-7-31,94,78,62,65,60,51,100,70,25,30.28,30.12,29.99,10,8,0,25,10,38,0.04,2,Fog-Rain,140